sensor_id;sensor_type;location;lat;lon;timestamp;pressure;altitude;pressure_sealevel;temperature;humidity
79463;BME280;68931;47.286;18.756;2023-07-08T00:00:20;101157.28;;;15.51;83.66
79463;BME280;68931;47.286;18.756;2023-07-08T00:00:54;101135.34;;;15.36;83.65
79463;BME280;68931;47.286;18.756;2023-07-08T00:01:26;101175.44;;;15.57;83.86
79463;BME280;68931;47.286;18.756;2023-07-08T00:01:58;101171.19;;;15.54;83.70
79463;BME280;68931;47.286;18.756;2023-07-08T00:02:36;101160.84;;;15.50;83.92
79463;BME280;68931;47.286;18.756;2023-07-08T00:03:08;101157.78;;;15.43;83.73
79463;BME280;68931;47.286;18.756;2023-07-08T00:03:41;101155.91;;;15.45;83.78
79463;BME280;68931;47.286;18.756;2023-07-08T00:04:13;101158.84;;;15.40;84.26
79463;BME280;68931;47.286;18.756;2023-07-08T00:04:45;101171.66;;;15.47;84.25
79463;BME280;68931;47.286;18.756;2023-07-08T00:05:19;101168.56;;;15.40;84.23
79463;BME280;68931;47.286;18.756;2023-07-08T00:05:55;101163.28;;;15.40;84.53
79463;BME280;68931;47.286;18.756;2023-07-08T00:06:28;101167.50;;;15.42;85.05
79463;BME280;68931;47.286;18.756;2023-07-08T00:07:00;101174.31;;;15.47;84.83
79463;BME280;68931;47.286;18.756;2023-07-08T00:07:32;101176.81;;;15.48;84.73
79463;BME280;68931;47.286;18.756;2023-07-08T00:08:04;101174.94;;;15.50;84.87
79463;BME280;68931;47.286;18.756;2023-07-08T00:08:36;101169.97;;;15.46;84.75
79463;BME280;68931;47.286;18.756;2023-07-08T00:09:10;101178.44;;;15.51;84.82
79463;BME280;68931;47.286;18.756;2023-07-08T00:09:43;101176.47;;;15.54;84.81
79463;BME280;68931;47.286;18.756;2023-07-08T00:10:21;101173.22;;;15.49;84.60
79463;BME280;68931;47.286;18.756;2023-07-08T00:10:54;101172.19;;;15.52;84.34
79463;BME280;68931;47.286;18.756;2023-07-08T00:11:28;101167.31;;;15.46;84.36
79463;BME280;68931;47.286;18.756;2023-07-08T00:12:00;101173.56;;;15.44;84.23
79463;BME280;68931;47.286;18.756;2023-07-08T00:12:32;101175.34;;;15.44;84.73
79463;BME280;68931;47.286;18.756;2023-07-08T00:13:04;101179.59;;;15.47;84.46
79463;BME280;68931;47.286;18.756;2023-07-08T00:13:36;101180.53;;;15.46;84.39
79463;BME280;68931;47.286;18.756;2023-07-08T00:14:09;101170.34;;;15.39;84.16
79463;BME280;68931;47.286;18.756;2023-07-08T00:14:41;101143.16;;;15.25;84.47
79463;BME280;68931;47.286;18.756;2023-07-08T00:15:13;101174.59;;;15.42;84.25
79463;BME280;68931;47.286;18.756;2023-07-08T00:15:45;101158.72;;;15.29;84.43
79463;BME280;68931;47.286;18.756;2023-07-08T00:16:18;101179.97;;;15.40;84.62
79463;BME280;68931;47.286;18.756;2023-07-08T00:16:51;101178.28;;;15.39;85.24
79463;BME280;68931;47.286;18.756;2023-07-08T00:17:26;101171.53;;;15.35;85.03
79463;BME280;68931;47.286;18.756;2023-07-08T00:17:59;101172.47;;;15.34;84.99
79463;BME280;68931;47.286;18.756;2023-07-08T00:18:31;101163.88;;;15.31;84.74
79463;BME280;68931;47.286;18.756;2023-07-08T00:19:08;101165.38;;;15.35;84.90
79463;BME280;68931;47.286;18.756;2023-07-08T00:19:41;101171.19;;;15.40;84.62
79463;BME280;68931;47.286;18.756;2023-07-08T00:20:50;101164.84;;;15.30;84.43
79463;BME280;68931;47.286;18.756;2023-07-08T00:21:22;101175.97;;;15.35;84.34
79463;BME280;68931;47.286;18.756;2023-07-08T00:21:54;101174.06;;;15.37;84.60
79463;BME280;68931;47.286;18.756;2023-07-08T00:22:29;101175.88;;;15.36;84.74
79463;BME280;68931;47.286;18.756;2023-07-08T00:23:01;101174.06;;;15.37;84.75
79463;BME280;68931;47.286;18.756;2023-07-08T00:23:33;101165.81;;;15.29;84.80
79463;BME280;68931;47.286;18.756;2023-07-08T00:24:07;101170.34;;;15.27;85.18
79463;BME280;68931;47.286;18.756;2023-07-08T00:24:42;101169.41;;;15.28;84.72
79463;BME280;68931;47.286;18.756;2023-07-08T00:25:14;101175.31;;;15.31;84.75
79463;BME280;68931;47.286;18.756;2023-07-08T00:25:47;101139.06;;;15.06;84.67
79463;BME280;68931;47.286;18.756;2023-07-08T00:26:25;101177.22;;;15.29;84.95
79463;BME280;68931;47.286;18.756;2023-07-08T00:26:58;101174.69;;;15.28;85.45
79463;BME280;68931;47.286;18.756;2023-07-08T00:27:30;101172.22;;;15.25;84.90
79463;BME280;68931;47.286;18.756;2023-07-08T00:28:04;101180.72;;;15.30;85.08
79463;BME280;68931;47.286;18.756;2023-07-08T00:28:36;101163.44;;;15.24;85.01
79463;BME280;68931;47.286;18.756;2023-07-08T00:29:09;101154.34;;;15.16;85.05
79463;BME280;68931;47.286;18.756;2023-07-08T00:29:44;101175.81;;;15.24;85.12
79463;BME280;68931;47.286;18.756;2023-07-08T00:30:56;101172.41;;;15.22;85.17
79463;BME280;68931;47.286;18.756;2023-07-08T00:31:29;101178.28;;;15.27;85.51
79463;BME280;68931;47.286;18.756;2023-07-08T00:32:15;101175.72;;;15.25;85.25
79463;BME280;68931;47.286;18.756;2023-07-08T00:32:47;101165.56;;;15.19;85.56
79463;BME280;68931;47.286;18.756;2023-07-08T00:33:19;101170.00;;;15.19;85.90
79463;BME280;68931;47.286;18.756;2023-07-08T00:33:53;101173.41;;;15.21;85.65
79463;BME280;68931;47.286;18.756;2023-07-08T00:34:28;101178.47;;;15.24;85.90
79463;BME280;68931;47.286;18.756;2023-07-08T00:35:00;101181.09;;;15.24;86.18
79463;BME280;68931;47.286;18.756;2023-07-08T00:35:36;101178.56;;;15.22;86.04
79463;BME280;68931;47.286;18.756;2023-07-08T00:36:11;101186.63;;;15.21;85.84
79463;BME280;68931;47.286;18.756;2023-07-08T00:36:44;101178.69;;;15.21;85.90
79463;BME280;68931;47.286;18.756;2023-07-08T00:37:16;101178.69;;;15.21;85.48
79463;BME280;68931;47.286;18.756;2023-07-08T00:37:52;101165.22;;;15.11;85.81
79463;BME280;68931;47.286;18.756;2023-07-08T00:38:33;101173.59;;;15.18;85.75
79463;BME280;68931;47.286;18.756;2023-07-08T00:39:13;101155.97;;;15.04;86.03
79463;BME280;68931;47.286;18.756;2023-07-08T00:39:46;101183.41;;;15.16;85.91
79463;BME280;68931;47.286;18.756;2023-07-08T00:40:21;101175.28;;;15.19;85.82
79463;BME280;68931;47.286;18.756;2023-07-08T00:41:14;101178.03;;;15.17;86.10
79463;BME280;68931;47.286;18.756;2023-07-08T00:41:49;101167.44;;;15.17;86.23
79463;BME280;68931;47.286;18.756;2023-07-08T00:42:24;101176.97;;;15.20;85.98
79463;BME280;68931;47.286;18.756;2023-07-08T00:42:59;101152.59;;;15.02;85.66
79463;BME280;68931;47.286;18.756;2023-07-08T00:43:52;101166.78;;;15.14;86.20
79463;BME280;68931;47.286;18.756;2023-07-08T00:44:24;101171.88;;;15.17;85.99
79463;BME280;68931;47.286;18.756;2023-07-08T00:44:56;101180.34;;;15.22;85.60
79463;BME280;68931;47.286;18.756;2023-07-08T00:47:07;101178.69;;;15.21;86.09
79463;BME280;68931;47.286;18.756;2023-07-08T00:47:40;101175.38;;;15.17;85.60
79463;BME280;68931;47.286;18.756;2023-07-08T00:48:23;101179.06;;;15.15;86.07
79463;BME280;68931;47.286;18.756;2023-07-08T00:50:02;101174.19;;;15.09;86.47
79463;BME280;68931;47.286;18.756;2023-07-08T00:50:36;101147.50;;;14.99;86.53
79463;BME280;68931;47.286;18.756;2023-07-08T00:51:08;101175.69;;;15.13;86.51
79463;BME280;68931;47.286;18.756;2023-07-08T00:51:44;101164.47;;;15.09;86.66
79463;BME280;68931;47.286;18.756;2023-07-08T00:53:56;101172.06;;;15.14;86.40
79463;BME280;68931;47.286;18.756;2023-07-08T00:54:28;101154.09;;;15.06;86.42
79463;BME280;68931;47.286;18.756;2023-07-08T00:55:06;101151.00;;;14.99;86.37
79463;BME280;68931;47.286;18.756;2023-07-08T00:55:40;101168.72;;;15.12;86.14
79463;BME280;68931;47.286;18.756;2023-07-08T00:56:20;101152.69;;;15.00;86.21
79463;BME280;68931;47.286;18.756;2023-07-08T00:57:02;101160.44;;;15.03;86.22
79463;BME280;68931;47.286;18.756;2023-07-08T00:57:39;101171.34;;;15.12;86.07
79463;BME280;68931;47.286;18.756;2023-07-08T00:58:12;101165.22;;;15.11;86.38
79463;BME280;68931;47.286;18.756;2023-07-08T00:58:52;101175.69;;;15.13;85.90
79463;BME280;68931;47.286;18.756;2023-07-08T00:59:31;101176.66;;;15.12;85.75
79463;BME280;68931;47.286;18.756;2023-07-08T01:00:09;101173.44;;;15.06;85.43
79463;BME280;68931;47.286;18.756;2023-07-08T01:00:45;101167.31;;;15.06;85.67
79463;BME280;68931;47.286;18.756;2023-07-08T01:01:19;101157.41;;;14.95;85.42
79463;BME280;68931;47.286;18.756;2023-07-08T01:01:53;101161.97;;;14.93;85.73
79463;BME280;68931;47.286;18.756;2023-07-08T01:02:28;101145.38;;;14.91;86.02
79463;BME280;68931;47.286;18.756;2023-07-08T01:03:01;101162.53;;;14.98;85.83
79463;BME280;68931;47.286;18.756;2023-07-08T01:03:44;101159.34;;;14.93;85.83
79463;BME280;68931;47.286;18.756;2023-07-08T01:04:25;101158.28;;;14.96;86.42
79463;BME280;68931;47.286;18.756;2023-07-08T01:05:05;101151.06;;;14.85;85.87
79463;BME280;68931;47.286;18.756;2023-07-08T01:05:38;101169.06;;;14.93;86.21
79463;BME280;68931;47.286;18.756;2023-07-08T01:06:10;101168.22;;;14.92;86.32
79463;BME280;68931;47.286;18.756;2023-07-08T01:06:45;101123.19;;;14.67;85.99
79463;BME280;68931;47.286;18.756;2023-07-08T01:07:19;101161.31;;;14.90;86.26
79463;BME280;68931;47.286;18.756;2023-07-08T01:07:57;101171.63;;;14.94;86.11
79463;BME280;68931;47.286;18.756;2023-07-08T01:08:30;101161.50;;;14.87;86.33
79463;BME280;68931;47.286;18.756;2023-07-08T01:09:04;101152.94;;;14.83;86.01
79463;BME280;68931;47.286;18.756;2023-07-08T01:09:41;101153.34;;;14.77;86.08
79463;BME280;68931;47.286;18.756;2023-07-08T01:10:19;101163.53;;;14.83;85.89
79463;BME280;68931;47.286;18.756;2023-07-08T01:10:59;101156.72;;;14.79;85.83
79463;BME280;68931;47.286;18.756;2023-07-08T01:11:34;101145.81;;;14.71;85.93
79463;BME280;68931;47.286;18.756;2023-07-08T01:12:15;101160.22;;;14.80;85.75
79463;BME280;68931;47.286;18.756;2023-07-08T01:12:53;101164.38;;;14.84;85.67
79463;BME280;68931;47.286;18.756;2023-07-08T01:13:31;101133.75;;;14.67;85.86
79463;BME280;68931;47.286;18.756;2023-07-08T01:14:06;101154.56;;;14.72;86.06
79463;BME280;68931;47.286;18.756;2023-07-08T01:14:42;101156.94;;;14.76;86.06
79463;BME280;68931;47.286;18.756;2023-07-08T01:15:15;101171.94;;;14.76;86.36
79463;BME280;68931;47.286;18.756;2023-07-08T01:15:47;101165.72;;;14.77;86.08
79463;BME280;68931;47.286;18.756;2023-07-08T01:16:21;101161.75;;;14.69;86.51
79463;BME280;68931;47.286;18.756;2023-07-08T01:17:00;101171.28;;;14.72;86.04
79463;BME280;68931;47.286;18.756;2023-07-08T01:17:32;101160.09;;;14.68;85.91
79463;BME280;68931;47.286;18.756;2023-07-08T01:18:05;101174.00;;;14.71;85.66
79463;BME280;68931;47.286;18.756;2023-07-08T01:18:37;101142.47;;;14.55;85.93
79463;BME280;68931;47.286;18.756;2023-07-08T01:19:16;101162.72;;;14.68;85.72
79463;BME280;68931;47.286;18.756;2023-07-08T01:19:49;101157.72;;;14.64;85.45
79463;BME280;68931;47.286;18.756;2023-07-08T01:20:23;101167.03;;;14.69;86.02
79463;BME280;68931;47.286;18.756;2023-07-08T01:20:55;101163.00;;;14.64;85.65
79463;BME280;68931;47.286;18.756;2023-07-08T01:21:38;101175.06;;;14.68;85.85
79463;BME280;68931;47.286;18.756;2023-07-08T01:22:11;101171.59;;;14.67;85.99
79463;BME280;68931;47.286;18.756;2023-07-08T01:22:44;101166.59;;;14.63;85.60
79463;BME280;68931;47.286;18.756;2023-07-08T01:23:17;101176.03;;;14.67;85.85
79463;BME280;68931;47.286;18.756;2023-07-08T01:23:49;101157.91;;;14.61;85.91
79463;BME280;68931;47.286;18.756;2023-07-08T01:24:21;101165.47;;;14.67;86.10
79463;BME280;68931;47.286;18.756;2023-07-08T01:24:53;101175.06;;;14.68;86.83
79463;BME280;68931;47.286;18.756;2023-07-08T01:25:26;101148.69;;;14.54;86.38
79463;BME280;68931;47.286;18.756;2023-07-08T01:25:59;101140.00;;;14.52;86.74
79463;BME280;68931;47.286;18.756;2023-07-08T01:26:34;101174.50;;;14.63;86.67
79463;BME280;68931;47.286;18.756;2023-07-08T01:27:11;101150.00;;;14.47;86.22
79463;BME280;68931;47.286;18.756;2023-07-08T01:27:48;101165.38;;;14.54;86.58
79463;BME280;68931;47.286;18.756;2023-07-08T01:28:21;101164.53;;;14.54;86.48
79463;BME280;68931;47.286;18.756;2023-07-08T01:28:55;101170.66;;;14.54;86.71
79463;BME280;68931;47.286;18.756;2023-07-08T01:29:28;101160.28;;;14.51;86.60
79463;BME280;68931;47.286;18.756;2023-07-08T01:30:02;101166.97;;;14.57;86.45
79463;BME280;68931;47.286;18.756;2023-07-08T01:30:35;101165.28;;;14.56;86.71
79463;BME280;68931;47.286;18.756;2023-07-08T01:31:08;101163.41;;;14.58;86.64
79463;BME280;68931;47.286;18.756;2023-07-08T01:31:41;101165.19;;;14.57;86.42
79463;BME280;68931;47.286;18.756;2023-07-08T01:32:20;101162.63;;;14.56;86.19
79463;BME280;68931;47.286;18.756;2023-07-08T01:32:57;101164.53;;;14.54;86.32
79463;BME280;68931;47.286;18.756;2023-07-08T01:33:31;101143.22;;;14.43;86.23
79463;BME280;68931;47.286;18.756;2023-07-08T01:34:09;101166.13;;;14.56;85.94
79463;BME280;68931;47.286;18.756;2023-07-08T01:34:42;101160.09;;;14.54;85.71
79463;BME280;68931;47.286;18.756;2023-07-08T01:35:15;101157.44;;;14.54;85.74
79463;BME280;68931;47.286;18.756;2023-07-08T01:35:47;101175.53;;;14.60;85.59
79463;BME280;68931;47.286;18.756;2023-07-08T01:36:22;101165.09;;;14.59;85.83
79463;BME280;68931;47.286;18.756;2023-07-08T01:36:58;101163.41;;;14.58;86.28
79463;BME280;68931;47.286;18.756;2023-07-08T01:37:40;101162.34;;;14.60;86.03
79463;BME280;68931;47.286;18.756;2023-07-08T01:38:17;101172.06;;;14.60;86.40
79463;BME280;68931;47.286;18.756;2023-07-08T01:38:51;101169.63;;;14.57;85.88
79463;BME280;68931;47.286;18.756;2023-07-08T01:39:27;101155.47;;;14.44;85.95
79463;BME280;68931;47.286;18.756;2023-07-08T01:40:14;101170.84;;;14.51;85.85
79463;BME280;68931;47.286;18.756;2023-07-08T01:40:55;101162.47;;;14.45;85.86
79463;BME280;68931;47.286;18.756;2023-07-08T01:41:28;101170.75;;;14.53;86.12
79463;BME280;68931;47.286;18.756;2023-07-08T01:42:00;101153.78;;;14.43;86.08
79463;BME280;68931;47.286;18.756;2023-07-08T01:42:32;101160.03;;;14.42;86.04
79463;BME280;68931;47.286;18.756;2023-07-08T01:43:06;101153.16;;;14.39;85.75
79463;BME280;68931;47.286;18.756;2023-07-08T01:43:43;101162.75;;;14.40;86.20
79463;BME280;68931;47.286;18.756;2023-07-08T01:44:34;101170.97;;;14.50;86.09
79463;BME280;68931;47.286;18.756;2023-07-08T01:45:14;101169.25;;;14.49;85.75
79463;BME280;68931;47.286;18.756;2023-07-08T01:45:48;101177.09;;;14.50;86.03
79463;BME280;68931;47.286;18.756;2023-07-08T01:46:26;101151.59;;;14.35;86.28
79463;BME280;68931;47.286;18.756;2023-07-08T01:47:13;101169.34;;;14.47;86.38
79463;BME280;68931;47.286;18.756;2023-07-08T01:47:52;101173.78;;;14.47;86.06
79463;BME280;68931;47.286;18.756;2023-07-08T01:48:30;101171.13;;;14.47;86.14
79463;BME280;68931;47.286;18.756;2023-07-08T01:49:03;101174.91;;;14.43;86.22
79463;BME280;68931;47.286;18.756;2023-07-08T01:49:37;101170.47;;;14.43;86.01
79463;BME280;68931;47.286;18.756;2023-07-08T01:50:11;101160.97;;;14.41;86.25
79463;BME280;68931;47.286;18.756;2023-07-08T01:50:54;101162.56;;;14.43;85.84
79463;BME280;68931;47.286;18.756;2023-07-08T01:51:28;101157.47;;;14.40;85.96
79463;BME280;68931;47.286;18.756;2023-07-08T01:52:01;101161.34;;;14.49;86.13
79463;BME280;68931;47.286;18.756;2023-07-08T01:52:33;101169.44;;;14.46;85.76
79463;BME280;68931;47.286;18.756;2023-07-08T01:53:15;101167.09;;;14.41;85.90
79463;BME280;68931;47.286;18.756;2023-07-08T01:53:48;101140.75;;;14.25;86.12
79463;BME280;68931;47.286;18.756;2023-07-08T01:54:20;101164.91;;;14.34;86.27
79463;BME280;68931;47.286;18.756;2023-07-08T01:54:55;101162.38;;;14.32;86.23
79463;BME280;68931;47.286;18.756;2023-07-08T01:55:27;101163.00;;;14.36;86.42
79463;BME280;68931;47.286;18.756;2023-07-08T01:56:04;101151.81;;;14.32;86.24
79463;BME280;68931;47.286;18.756;2023-07-08T01:56:36;101160.56;;;14.32;86.92
79463;BME280;68931;47.286;18.756;2023-07-08T01:57:08;101159.41;;;14.37;86.43
79463;BME280;68931;47.286;18.756;2023-07-08T01:57:40;101158.88;;;14.31;86.64
79463;BME280;68931;47.286;18.756;2023-07-08T01:58:12;101160.56;;;14.32;86.43
79463;BME280;68931;47.286;18.756;2023-07-08T01:58:44;101161.44;;;14.33;86.54
79463;BME280;68931;47.286;18.756;2023-07-08T01:59:16;101170.19;;;14.34;86.46
79463;BME280;68931;47.286;18.756;2023-07-08T01:59:48;101164.25;;;14.30;86.58
79463;BME280;68931;47.286;18.756;2023-07-08T02:00:21;101153.78;;;14.28;86.73
79463;BME280;68931;47.286;18.756;2023-07-08T02:00:54;101131.84;;;14.14;86.36
79463;BME280;68931;47.286;18.756;2023-07-08T02:01:26;101171.22;;;14.31;86.70
79463;BME280;68931;47.286;18.756;2023-07-08T02:01:58;101164.25;;;14.30;86.59
79463;BME280;68931;47.286;18.756;2023-07-08T02:02:30;101163.56;;;14.26;85.93
79463;BME280;68931;47.286;18.756;2023-07-08T02:03:02;101139.84;;;14.12;86.58
79463;BME280;68931;47.286;18.756;2023-07-08T02:03:34;101163.56;;;14.26;86.49
79463;BME280;68931;47.286;18.756;2023-07-08T02:04:07;101172.91;;;14.32;86.38
79463;BME280;68931;47.286;18.756;2023-07-08T02:04:39;101155.19;;;14.20;86.83
79463;BME280;68931;47.286;18.756;2023-07-08T02:05:11;101161.88;;;14.25;86.96
79463;BME280;68931;47.286;18.756;2023-07-08T02:05:43;101165.38;;;14.26;86.37
79463;BME280;68931;47.286;18.756;2023-07-08T02:06:15;101159.44;;;14.22;86.39
79463;BME280;68931;47.286;18.756;2023-07-08T02:07:05;101163.03;;;14.21;86.44
79463;BME280;68931;47.286;18.756;2023-07-08T02:07:37;101177.63;;;14.27;86.75
79463;BME280;68931;47.286;18.756;2023-07-08T02:08:09;101167.38;;;14.22;86.69
79463;BME280;68931;47.286;18.756;2023-07-08T02:08:41;101164.91;;;14.19;86.60
79463;BME280;68931;47.286;18.756;2023-07-08T02:09:13;101147.09;;;14.09;86.79
79463;BME280;68931;47.286;18.756;2023-07-08T02:09:45;101163.13;;;14.20;87.09
79463;BME280;68931;47.286;18.756;2023-07-08T02:10:17;101147.84;;;14.11;86.72
79463;BME280;68931;47.286;18.756;2023-07-08T02:10:52;101152.94;;;14.14;86.82
79463;BME280;68931;47.286;18.756;2023-07-08T02:11:24;101156.34;;;14.16;86.82
79463;BME280;68931;47.286;18.756;2023-07-08T02:11:56;101172.44;;;14.25;87.19
79463;BME280;68931;47.286;18.756;2023-07-08T02:12:28;101161.22;;;14.22;86.73
79463;BME280;68931;47.286;18.756;2023-07-08T02:13:00;101170.56;;;14.27;86.73
79463;BME280;68931;47.286;18.756;2023-07-08T02:13:32;101175.66;;;14.30;86.00
79463;BME280;68931;47.286;18.756;2023-07-08T02:14:04;101163.78;;;14.23;86.32
79463;BME280;68931;47.286;18.756;2023-07-08T02:14:36;101142.28;;;14.15;86.82
79463;BME280;68931;47.286;18.756;2023-07-08T02:15:10;101155.28;;;14.18;86.67
79463;BME280;68931;47.286;18.756;2023-07-08T02:15:42;101150.41;;;14.12;86.18
79463;BME280;68931;47.286;18.756;2023-07-08T02:16:14;101174.53;;;14.20;86.51
79463;BME280;68931;47.286;18.756;2023-07-08T02:16:46;101172.56;;;14.24;86.24
79463;BME280;68931;47.286;18.756;2023-07-08T02:17:18;101153.97;;;14.11;86.38
79463;BME280;68931;47.286;18.756;2023-07-08T02:17:50;101148.88;;;14.08;86.26
79463;BME280;68931;47.286;18.756;2023-07-08T02:18:22;101155.75;;;14.11;86.39
79463;BME280;68931;47.286;18.756;2023-07-08T02:18:56;101170.28;;;14.18;86.47
79463;BME280;68931;47.286;18.756;2023-07-08T02:19:28;101171.97;;;14.19;86.56
79463;BME280;68931;47.286;18.756;2023-07-08T02:20:00;101158.41;;;14.11;86.49
79463;BME280;68931;47.286;18.756;2023-07-08T02:20:32;101164.53;;;14.11;86.76
79463;BME280;68931;47.286;18.756;2023-07-08T02:21:04;101153.50;;;14.05;86.84
79463;BME280;68931;47.286;18.756;2023-07-08T02:21:38;101159.56;;;14.07;86.63
79463;BME280;68931;47.286;18.756;2023-07-08T02:22:10;101176.59;;;14.15;86.24
79463;BME280;68931;47.286;18.756;2023-07-08T02:22:42;101170.56;;;14.13;86.40
79463;BME280;68931;47.286;18.756;2023-07-08T02:23:15;101162.44;;;14.02;86.08
79463;BME280;68931;47.286;18.756;2023-07-08T02:23:50;101152.84;;;14.01;86.11
79463;BME280;68931;47.286;18.756;2023-07-08T02:24:23;101173.38;;;14.10;86.15
79463;BME280;68931;47.286;18.756;2023-07-08T02:24:55;101156.41;;;14.00;86.00
79463;BME280;68931;47.286;18.756;2023-07-08T02:25:28;101179.41;;;14.12;86.29
79463;BME280;68931;47.286;18.756;2023-07-08T02:26:00;101161.78;;;13.99;86.02
79463;BME280;68931;47.286;18.756;2023-07-08T02:26:32;101149.66;;;13.96;86.06
79463;BME280;68931;47.286;18.756;2023-07-08T02:27:04;101169.59;;;14.00;86.29
79463;BME280;68931;47.286;18.756;2023-07-08T02:27:37;101173.84;;;14.03;86.11
79463;BME280;68931;47.286;18.756;2023-07-08T02:28:09;101150.00;;;13.90;86.71
79463;BME280;68931;47.286;18.756;2023-07-08T02:28:41;101156.63;;;13.97;86.79
79463;BME280;68931;47.286;18.756;2023-07-08T02:29:13;101171.88;;;14.06;86.82
79463;BME280;68931;47.286;18.756;2023-07-08T02:29:45;101176.97;;;14.09;87.01
79463;BME280;68931;47.286;18.756;2023-07-08T02:30:17;101169.44;;;14.03;87.10
79463;BME280;68931;47.286;18.756;2023-07-08T02:30:49;101168.88;;;13.98;87.07
79463;BME280;68931;47.286;18.756;2023-07-08T02:31:21;101167.91;;;13.99;87.21
79463;BME280;68931;47.286;18.756;2023-07-08T02:32:14;101167.53;;;13.91;87.41
79463;BME280;68931;47.286;18.756;2023-07-08T02:32:46;101166.50;;;13.93;87.07
79463;BME280;68931;47.286;18.756;2023-07-08T02:33:20;101176.59;;;14.01;87.27
79463;BME280;68931;47.286;18.756;2023-07-08T02:33:59;101172.44;;;13.97;87.61
79463;BME280;68931;47.286;18.756;2023-07-08T02:34:36;101172.16;;;14.02;87.90
79463;BME280;68931;47.286;18.756;2023-07-08T02:35:09;101170.66;;;13.98;87.46
79463;BME280;68931;47.286;18.756;2023-07-08T02:35:41;101170.75;;;13.96;87.85
79463;BME280;68931;47.286;18.756;2023-07-08T02:36:13;101170.91;;;13.93;87.84
79463;BME280;68931;47.286;18.756;2023-07-08T02:36:45;101153.94;;;13.83;87.55
79463;BME280;68931;47.286;18.756;2023-07-08T02:37:17;101175.19;;;13.96;87.72
79463;BME280;68931;47.286;18.756;2023-07-08T02:37:49;101170.06;;;13.92;87.72
79463;BME280;68931;47.286;18.756;2023-07-08T02:38:21;101167.34;;;13.94;88.04
79463;BME280;68931;47.286;18.756;2023-07-08T02:38:53;101145.41;;;13.79;87.82
79463;BME280;68931;47.286;18.756;2023-07-08T02:39:25;101169.22;;;13.92;87.60
79463;BME280;68931;47.286;18.756;2023-07-08T02:39:57;101178.00;;;13.92;87.72
79463;BME280;68931;47.286;18.756;2023-07-08T02:40:29;101159.91;;;13.86;87.90
79463;BME280;68931;47.286;18.756;2023-07-08T02:41:01;101167.53;;;13.91;87.70
79463;BME280;68931;47.286;18.756;2023-07-08T02:41:33;101168.28;;;13.93;87.72
79463;BME280;68931;47.286;18.756;2023-07-08T02:42:05;101169.03;;;13.95;88.02
79463;BME280;68931;47.286;18.756;2023-07-08T02:42:37;101156.31;;;13.87;88.11
79463;BME280;68931;47.286;18.756;2023-07-08T02:43:09;101168.13;;;13.96;88.22
79463;BME280;68931;47.286;18.756;2023-07-08T02:43:41;101177.72;;;13.97;87.86
79463;BME280;68931;47.286;18.756;2023-07-08T02:44:14;101169.81;;;13.97;87.66
79463;BME280;68931;47.286;18.756;2023-07-08T02:44:46;101141.22;;;13.75;87.76
79463;BME280;68931;47.286;18.756;2023-07-08T02:45:18;101160.84;;;13.85;87.56
79463;BME280;68931;47.286;18.756;2023-07-08T02:45:51;101169.03;;;13.95;87.63
79463;BME280;68931;47.286;18.756;2023-07-08T02:46:23;101169.03;;;13.95;87.29
79463;BME280;68931;47.286;18.756;2023-07-08T02:46:55;101164.88;;;13.91;87.09
79463;BME280;68931;47.286;18.756;2023-07-08T02:47:29;101163.09;;;13.91;87.22
79463;BME280;68931;47.286;18.756;2023-07-08T02:48:01;101161.69;;;13.86;87.30
79463;BME280;68931;47.286;18.756;2023-07-08T02:48:34;101156.59;;;13.83;86.97
79463;BME280;68931;47.286;18.756;2023-07-08T02:49:06;101176.78;;;13.98;87.36
79463;BME280;68931;47.286;18.756;2023-07-08T02:49:38;101178.38;;;14.01;87.07
79463;BME280;68931;47.286;18.756;2023-07-08T02:50:13;101156.31;;;13.87;87.24
79463;BME280;68931;47.286;18.756;2023-07-08T02:50:45;101178.19;;;14.04;87.49
79463;BME280;68931;47.286;18.756;2023-07-08T02:51:17;101181.69;;;14.04;87.08
79463;BME280;68931;47.286;18.756;2023-07-08T02:51:49;101171.38;;;14.00;87.12
79463;BME280;68931;47.286;18.756;2023-07-08T02:52:21;101159.13;;;13.99;87.00
79463;BME280;68931;47.286;18.756;2023-07-08T02:52:53;101178.66;;;14.10;86.66
79463;BME280;68931;47.286;18.756;2023-07-08T02:53:25;101145.56;;;13.90;86.54
79463;BME280;68931;47.286;18.756;2023-07-08T02:53:57;101183.94;;;14.10;86.90
79463;BME280;68931;47.286;18.756;2023-07-08T02:54:29;101184.97;;;14.08;86.65
79463;BME280;68931;47.286;18.756;2023-07-08T02:55:02;101165.72;;;13.91;86.37
79463;BME280;68931;47.286;18.756;2023-07-08T02:55:34;101175.66;;;14.02;86.10
79463;BME280;68931;47.286;18.756;2023-07-08T02:56:06;101155.38;;;13.88;86.51
79463;BME280;68931;47.286;18.756;2023-07-08T02:56:38;101159.72;;;13.89;86.31
79463;BME280;68931;47.286;18.756;2023-07-08T02:57:10;101145.28;;;13.81;86.05
79463;BME280;68931;47.286;18.756;2023-07-08T02:57:42;101175.94;;;13.98;85.99
79463;BME280;68931;47.286;18.756;2023-07-08T02:58:14;101167.34;;;13.94;85.96
79463;BME280;68931;47.286;18.756;2023-07-08T02:58:46;101159.06;;;13.86;85.82
79463;BME280;68931;47.286;18.756;2023-07-08T02:59:18;101162.63;;;13.85;85.70
79463;BME280;68931;47.286;18.756;2023-07-08T02:59:50;101171.09;;;13.90;85.47
79463;BME280;68931;47.286;18.756;2023-07-08T03:00:22;101179.78;;;13.92;85.64
79463;BME280;68931;47.286;18.756;2023-07-08T03:00:56;101176.28;;;13.91;85.70
79463;BME280;68931;47.286;18.756;2023-07-08T03:01:30;101177.34;;;13.89;85.84
79463;BME280;68931;47.286;18.756;2023-07-08T03:02:03;101181.75;;;13.88;85.49